METAR Data
IDs: Format: Raw Decoded Include TAF

Data at: 0348 UTC 06 Dec 2019

KERV 060335Z AUTO 00000KT 10SM CLR 12/10 A3003 RMK AO2 T01200103
KERV 060315Z AUTO 00000KT 10SM CLR 14/12 A3003 RMK AO2 T01350118
KERV 060255Z AUTO 00000KT 10SM CLR 14/12 A3003 RMK AO2 T01350116
KERV 060235Z AUTO 00000KT 10SM CLR 12/10 A3001 RMK AO2 T01200101
KERV 060215Z AUTO 00000KT 10SM CLR 14/11 A3001 RMK AO2 T01350113
KERV 060155Z AUTO 00000KT 10SM CLR 15/12 A3000 RMK AO2 T01480124
KERV 060135Z AUTO 00000KT 10SM CLR 15/12 A2999 RMK AO2 T01480122
KERV 060115Z AUTO 00000KT 10SM CLR 16/13 A2999 RMK AO2 T01620132
KERV 060055Z AUTO 00000KT 10SM CLR 16/13 A2999 RMK AO2 T01620131
KERV 060035Z AUTO 00000KT 10SM CLR 16/13 A2998 RMK AO2 T01620127
KERV 060015Z AUTO 00000KT 10SM CLR 16/13 A2998 RMK AO2 T01620127
KERV 052355Z AUTO 00000KT 10SM CLR 17/13 A2998 RMK AO2 T01730132 10233 20173

KT82 060335Z AUTO 00000KT 10SM CLR 13/11 A3003 RMK AO2 T01250110
KT82 060315Z AUTO 01003KT 10SM CLR 12/10 A3002 RMK AO2 T01210102
KT82 060255Z AUTO 00000KT 10SM CLR 13/10 A3002 RMK AO2 T01260102
KT82 060235Z AUTO 00000KT 10SM CLR 14/11 A3001 RMK AO2 T01380107
KT82 060215Z AUTO 00000KT 10SM CLR 14/11 A3001 RMK AO2 T01420114
KT82 060155Z AUTO 00000KT 10SM CLR 15/11 A3000 RMK AO2 T01450113
KT82 060135Z AUTO 00000KT 10SM CLR 15/12 A2999 RMK AO2 T01510115
KT82 060115Z AUTO 00000KT 10SM CLR 17/12 A2999 RMK AO2 T01650115
KT82 060055Z AUTO 22003KT 10SM CLR 17/12 A2999 RMK AO2 T01720115
KT82 060035Z AUTO 00000KT 10SM CLR 18/12 A2998 RMK AO2 T01770117
KT82 060015Z AUTO 19005KT 10SM CLR 18/12 A2997 RMK AO2 T01820117
KT82 052355Z AUTO 18005KT 10SM CLR 19/11 A2997 RMK AO2 T01860112 10245 20186

KJCT 060251Z AUTO 21007KT 10SM CLR 19/09 A3002 RMK AO2 SLP141 T01890089 53024 PWINO
KJCT 060151Z AUTO 20003KT 10SM CLR 19/08 A2999 RMK AO2 SLP133 T01940083 PWINO
KJCT 060051Z AUTO 19007KT 10SM CLR 21/08 A2997 RMK AO2 SLP123 T02110083 PWINO
KJCT 052351Z AUTO 20007KT 10SM CLR 23/08 A2995 RMK AO2 SLP115 T02280083 10272 20228 53007 PWINO

K5C1 060335Z AUTO 00000KT 10SM CLR 11/11 RMK AO1
K5C1 060315Z AUTO 00000KT 10SM CLR 10/10 RMK AO1
K5C1 060255Z AUTO 00000KT 10SM CLR 11/11 RMK AO1
K5C1 060235Z AUTO 00000KT 10SM CLR 11/11 RMK AO1
K5C1 060215Z AUTO 00000KT 10SM CLR 11/11 RMK AO1
K5C1 060155Z AUTO 00000KT 10SM CLR 12/12 RMK AO1
K5C1 060135Z AUTO 00000KT 10SM CLR 12/12 RMK AO1
K5C1 060115Z AUTO 00000KT 10SM CLR 12/12 RMK AO1
K5C1 060055Z AUTO 00000KT 10SM CLR 13/12 RMK AO1
K5C1 060035Z AUTO 00000KT 10SM CLR 13/13 RMK AO1
K5C1 060015Z AUTO 00000KT 10SM CLR 14/13 RMK AO1
K5C1 052355Z AUTO 00000KT 10SM CLR 15/13 RMK AO1

KHDO 060251Z AUTO 02003KT 10SM CLR 13/10 A2999 RMK AO2 SLP150 T01330100 51014
KHDO 060151Z AUTO 07003KT 10SM CLR 16/13 A2998 RMK AO2 SLP143 T01560128
KHDO 060051Z AUTO 08003KT 10SM CLR 17/13 A2997 RMK AO2 SLP141 T01720128
KHDO 052351Z AUTO 10004KT 10SM CLR 20/14 A2995 RMK AO2 SLP133 T02000139 10239 20172 55001

KUVA 060335Z AUTO 04004KT 10SM CLR 15/13 A3002 RMK AO2 T01520131
KUVA 060315Z AUTO 05004KT 10SM CLR 15/13 A3001 RMK AO2 T01500133
KUVA 060255Z AUTO 04004KT 10SM CLR 15/13 A3000 RMK AO2 T01520133
KUVA 060235Z AUTO 03003KT 10SM CLR 16/13 A3000 RMK AO2 T01570133
KUVA 060215Z AUTO 00000KT 10SM CLR 17/14 A2999 RMK AO2 T01670137
KUVA 060155Z AUTO 05003KT 10SM CLR 16/14 A2999 RMK AO2 T01620135
KUVA 060135Z AUTO 05004KT 10SM CLR 17/14 A2999 RMK AO2 T01700136
KUVA 060115Z AUTO 06005KT 10SM CLR 16/13 A2998 RMK AO2 T01580128
KUVA 060055Z AUTO 06004KT 10SM CLR 17/13 A2998 RMK AO2 T01730134
KUVA 060035Z AUTO 06004KT 10SM CLR 17/13 A2998 RMK AO2 T01700130
KUVA 060015Z AUTO 06003KT 10SM CLR 19/14 A2996 RMK AO2 T01870139
KUVA 052355Z AUTO 10003KT 10SM CLR 21/14 A2996 RMK AO2 6//// T02050141

KSAT 060251Z 00000KT 10SM FEW180 SCT250 16/14 A2999 RMK AO2 SLP144 T01610139 51012
KSAT 060151Z 32004KT 10SM FEW180 SCT250 17/14 A2998 RMK AO2 SLP140 T01670144
KSAT 060051Z 00000KT 10SM FEW180 SCT250 19/15 A2997 RMK AO2 SLP137 T01890150
KSAT 052351Z 00000KT 10SM SCT180 BKN250 21/16 A2996 RMK AO2 SLP131 T02060156 10222 20178 56003

KSSF 060253Z 35003KT 6SM BR CLR 14/14 A2997 RMK AO2 SLP148 T01440144 51014
KSSF 060153Z 00000KT 9SM CLR 15/14 A2996 RMK AO2 SLP144 T01500144
KSSF 060053Z 00000KT 10SM CLR 17/16 A2995 RMK AO2 SLP141 T01670156
KSSF 052353Z 00000KT 10SM CLR 18/16 A2993 RMK AO2 SLP134 T01780161 10222 20150 55003